sensor_id;sensor_type;location;lat;lon;timestamp;pressure;altitude;pressure_sealevel;temperature;humidity
64668;BME280;51077;42.716;23.344;2022-10-04T00:03:43;95587.78;;;15.41;56.88
64668;BME280;51077;42.716;23.344;2022-10-04T00:05:53;95592.38;;;15.38;56.91
64668;BME280;51077;42.716;23.344;2022-10-04T00:11:28;95587.16;;;15.34;56.75
64668;BME280;51077;42.716;23.344;2022-10-04T00:14:06;95588.97;;;15.32;56.64
64668;BME280;51077;42.716;23.344;2022-10-04T00:16:36;95584.53;;;15.29;56.72
64668;BME280;51077;42.716;23.344;2022-10-04T00:22:09;95580.25;;;15.28;56.55
64668;BME280;51077;42.716;23.344;2022-10-04T00:24:35;95573.97;;;15.27;56.70
64668;BME280;51077;42.716;23.344;2022-10-04T00:29:49;95579.50;;;15.27;56.80
64668;BME280;51077;42.716;23.344;2022-10-04T00:38:00;95558.13;;;15.28;56.81
64668;BME280;51077;42.716;23.344;2022-10-04T00:40:33;95567.72;;;15.27;56.91
64668;BME280;51077;42.716;23.344;2022-10-04T00:43:03;95559.97;;;15.25;56.89
64668;BME280;51077;42.716;23.344;2022-10-04T00:45:39;95553.69;;;15.25;57.04
64668;BME280;51077;42.716;23.344;2022-10-04T00:48:47;95553.47;;;15.23;56.99
64668;BME280;51077;42.716;23.344;2022-10-04T00:51:24;95542.72;;;15.19;56.89
64668;BME280;51077;42.716;23.344;2022-10-04T00:54:03;95543.28;;;15.18;56.94
64668;BME280;51077;42.716;23.344;2022-10-04T00:59:34;95536.59;;;15.13;57.33
64668;BME280;51077;42.716;23.344;2022-10-04T01:02:04;95534.38;;;15.12;57.53
64668;BME280;51077;42.716;23.344;2022-10-04T01:04:50;95538.19;;;15.08;57.36
64668;BME280;51077;42.716;23.344;2022-10-04T01:07:23;95538.53;;;15.05;57.52
64668;BME280;51077;42.716;23.344;2022-10-04T01:10:01;95532.06;;;15.02;57.19
64668;BME280;51077;42.716;23.344;2022-10-04T01:12:48;95538.09;;;15.01;57.22
64668;BME280;51077;42.716;23.344;2022-10-04T01:15:30;95533.13;;;14.99;57.48
64668;BME280;51077;42.716;23.344;2022-10-04T01:23:40;95537.50;;;14.95;57.36
64668;BME280;51077;42.716;23.344;2022-10-04T01:31:37;95529.53;;;14.91;57.58
64668;BME280;51077;42.716;23.344;2022-10-04T01:34:03;95533.56;;;14.90;57.79
64668;BME280;51077;42.716;23.344;2022-10-04T01:36:30;95534.31;;;14.91;57.78
64668;BME280;51077;42.716;23.344;2022-10-04T01:38:56;95536.09;;;14.88;57.80
64668;BME280;51077;42.716;23.344;2022-10-04T01:41:44;95537.63;;;14.89;57.97
64668;BME280;51077;42.716;23.344;2022-10-04T01:44:21;95536.47;;;14.85;57.90
64668;BME280;51077;42.716;23.344;2022-10-04T01:46:50;95536.97;;;14.83;57.85
64668;BME280;51077;42.716;23.344;2022-10-04T01:49:19;95540.78;;;14.80;57.82
64668;BME280;51077;42.716;23.344;2022-10-04T01:52:36;95542.63;;;14.77;57.70
64668;BME280;51077;42.716;23.344;2022-10-04T01:54:46;95540.72;;;14.72;57.78
64668;BME280;51077;42.716;23.344;2022-10-04T01:57:20;95540.50;;;14.70;57.83
64668;BME280;51077;42.716;23.344;2022-10-04T01:59:51;95542.31;;;14.68;57.81
64668;BME280;51077;42.716;23.344;2022-10-04T02:02:22;95546.88;;;14.65;57.83
64668;BME280;51077;42.716;23.344;2022-10-04T02:04:56;95543.91;;;14.63;57.92
64668;BME280;51077;42.716;23.344;2022-10-04T02:07:23;95546.44;;;14.61;57.97
64668;BME280;51077;42.716;23.344;2022-10-04T02:09:56;95548.47;;;14.61;58.01
64668;BME280;51077;42.716;23.344;2022-10-04T02:12:25;95555.78;;;14.58;58.01
64668;BME280;51077;42.716;23.344;2022-10-04T02:14:53;95554.31;;;14.57;58.35
64668;BME280;51077;42.716;23.344;2022-10-04T02:17:26;95553.38;;;14.54;58.34
64668;BME280;51077;42.716;23.344;2022-10-04T02:19:53;95560.69;;;14.52;58.18
64668;BME280;51077;42.716;23.344;2022-10-04T02:22:22;95555.69;;;14.50;58.18
64668;BME280;51077;42.716;23.344;2022-10-04T02:24:49;95563.00;;;14.48;58.13
64668;BME280;51077;42.716;23.344;2022-10-04T02:27:15;95554.50;;;14.46;57.98
64668;BME280;51077;42.716;23.344;2022-10-04T02:29:41;95561.09;;;14.43;58.04
64668;BME280;51077;42.716;23.344;2022-10-04T02:32:07;95560.84;;;14.41;58.11
64668;BME280;51077;42.716;23.344;2022-10-04T02:34:54;95570.97;;;14.38;58.16
64668;BME280;51077;42.716;23.344;2022-10-04T02:37:21;95566.50;;;14.35;58.11
64668;BME280;51077;42.716;23.344;2022-10-04T02:39:55;95573.50;;;14.36;58.11
64668;BME280;51077;42.716;23.344;2022-10-04T02:42:39;95571.81;;;14.33;58.16
64668;BME280;51077;42.716;23.344;2022-10-04T02:45:18;95568.81;;;14.31;58.29
64668;BME280;51077;42.716;23.344;2022-10-04T02:47:49;95569.34;;;14.29;58.26
64668;BME280;51077;42.716;23.344;2022-10-04T02:50:27;95573.41;;;14.28;58.42
64668;BME280;51077;42.716;23.344;2022-10-04T02:53:00;95574.44;;;14.25;58.31
64668;BME280;51077;42.716;23.344;2022-10-04T02:55:33;95569.97;;;14.22;58.53
64668;BME280;51077;42.716;23.344;2022-10-04T02:58:00;95581.56;;;14.21;58.08
64668;BME280;51077;42.716;23.344;2022-10-04T03:00:28;95582.09;;;14.19;58.31
64668;BME280;51077;42.716;23.344;2022-10-04T03:03:23;95581.31;;;14.19;58.37
64668;BME280;51077;42.716;23.344;2022-10-04T03:06:01;95582.59;;;14.18;58.35
64668;BME280;51077;42.716;23.344;2022-10-04T03:08:34;95574.31;;;14.18;58.46
64668;BME280;51077;42.716;23.344;2022-10-04T03:11:02;95577.63;;;14.16;58.38
64668;BME280;51077;42.716;23.344;2022-10-04T03:13:30;95593.44;;;14.16;58.51
64668;BME280;51077;42.716;23.344;2022-10-04T03:15:56;95590.69;;;14.16;58.59
64668;BME280;51077;42.716;23.344;2022-10-04T03:18:21;95599.69;;;14.16;58.48
64668;BME280;51077;42.716;23.344;2022-10-04T03:20:48;95594.91;;;14.17;58.68
64668;BME280;51077;42.716;23.344;2022-10-04T03:23:16;95596.41;;;14.18;58.80
64668;BME280;51077;42.716;23.344;2022-10-04T03:25:48;95603.94;;;14.17;58.88
64668;BME280;51077;42.716;23.344;2022-10-04T03:28:15;95607.44;;;14.18;59.02
64668;BME280;51077;42.716;23.344;2022-10-04T03:30:45;95610.44;;;14.20;58.77
64668;BME280;51077;42.716;23.344;2022-10-04T03:33:16;95604.19;;;14.19;59.12
64668;BME280;51077;42.716;23.344;2022-10-04T03:35:45;95613.94;;;14.20;58.93
64668;BME280;51077;42.716;23.344;2022-10-04T03:38:13;95614.69;;;14.21;58.91
64668;BME280;51077;42.716;23.344;2022-10-04T03:40:46;95620.19;;;14.21;58.98
64668;BME280;51077;42.716;23.344;2022-10-04T03:43:16;95611.91;;;14.21;59.11
64668;BME280;51077;42.716;23.344;2022-10-04T03:45:42;95617.44;;;14.21;59.31
64668;BME280;51077;42.716;23.344;2022-10-04T03:48:12;95620.19;;;14.21;59.25
64668;BME280;51077;42.716;23.344;2022-10-04T03:50:46;95620.41;;;14.23;59.53
64668;BME280;51077;42.716;23.344;2022-10-04T03:55:57;95622.13;;;14.26;59.52
64668;BME280;51077;42.716;23.344;2022-10-04T03:58:24;95628.72;;;14.36;61.43
64668;BME280;51077;42.716;23.344;2022-10-04T04:03:45;95629.28;;;14.48;61.21
64668;BME280;51077;42.716;23.344;2022-10-04T04:06:15;95634.38;;;14.44;60.64
64668;BME280;51077;42.716;23.344;2022-10-04T04:08:44;95627.66;;;14.39;60.38
64668;BME280;51077;42.716;23.344;2022-10-04T04:11:29;95636.78;;;14.34;60.29
64668;BME280;51077;42.716;23.344;2022-10-04T04:14:06;95639.66;;;14.28;60.06
64668;BME280;51077;42.716;23.344;2022-10-04T04:16:35;95643.47;;;14.25;59.82
64668;BME280;51077;42.716;23.344;2022-10-04T04:19:03;95647.81;;;14.21;59.73
64668;BME280;51077;42.716;23.344;2022-10-04T04:21:30;95645.34;;;14.17;59.52
64668;BME280;51077;42.716;23.344;2022-10-04T04:24:02;95645.66;;;14.14;59.26
64668;BME280;51077;42.716;23.344;2022-10-04T04:32:04;95652.84;;;14.03;58.79
64668;BME280;51077;42.716;23.344;2022-10-04T04:34:34;95648.38;;;14.00;58.77
64668;BME280;51077;42.716;23.344;2022-10-04T04:37:09;95646.66;;;13.97;58.39
64668;BME280;51077;42.716;23.344;2022-10-04T04:39:35;95652.72;;;13.96;58.45
64668;BME280;51077;42.716;23.344;2022-10-04T04:42:14;95656.00;;;13.94;58.20
64668;BME280;51077;42.716;23.344;2022-10-04T04:44:50;95659.28;;;13.93;57.94
64668;BME280;51077;42.716;23.344;2022-10-04T04:49:56;95652.56;;;13.88;57.72
64668;BME280;51077;42.716;23.344;2022-10-04T04:52:26;95663.84;;;13.90;57.45
64668;BME280;51077;42.716;23.344;2022-10-04T04:54:53;95662.34;;;13.89;57.45
64668;BME280;51077;42.716;23.344;2022-10-04T04:57:20;95667.34;;;13.91;57.31
64668;BME280;51077;42.716;23.344;2022-10-04T04:59:49;95662.56;;;13.91;57.19
64668;BME280;51077;42.716;23.344;2022-10-04T05:02:36;95665.56;;;13.93;57.09
64668;BME280;51077;42.716;23.344;2022-10-04T05:05:23;95658.75;;;13.94;57.04
64668;BME280;51077;42.716;23.344;2022-10-04T05:07:49;95672.56;;;13.94;56.88
64668;BME280;51077;42.716;23.344;2022-10-04T05:12:57;95669.09;;;14.07;56.62
64668;BME280;51077;42.716;23.344;2022-10-04T05:15:24;95669.66;;;14.19;56.10
64668;BME280;51077;42.716;23.344;2022-10-04T05:17:50;95672.47;;;14.32;55.85
64668;BME280;51077;42.716;23.344;2022-10-04T05:20:17;95674.31;;;14.43;55.59
64668;BME280;51077;42.716;23.344;2022-10-04T05:22:46;95668.94;;;14.50;55.25
64668;BME280;51077;42.716;23.344;2022-10-04T05:25:25;95677.88;;;14.56;54.99
64668;BME280;51077;42.716;23.344;2022-10-04T05:27:53;95671.81;;;14.58;54.90
64668;BME280;51077;42.716;23.344;2022-10-04T05:33:08;95678.00;;;14.64;54.41
64668;BME280;51077;42.716;23.344;2022-10-04T05:38:25;95690.34;;;14.90;54.68
64668;BME280;51077;42.716;23.344;2022-10-04T05:41:27;95691.97;;;15.12;54.66
64668;BME280;51077;42.716;23.344;2022-10-04T05:43:56;95700.88;;;15.31;54.36
64668;BME280;51077;42.716;23.344;2022-10-04T05:46:25;95697.16;;;15.42;53.87
64668;BME280;51077;42.716;23.344;2022-10-04T05:49:18;95696.72;;;15.64;53.02
64668;BME280;51077;42.716;23.344;2022-10-04T05:54:18;95706.81;;;16.09;51.94
64668;BME280;51077;42.716;23.344;2022-10-04T05:57:18;95708.00;;;16.34;51.29
64668;BME280;51077;42.716;23.344;2022-10-04T06:05:22;95726.41;;;17.16;49.60
64668;BME280;51077;42.716;23.344;2022-10-04T06:08:09;95731.03;;;17.49;48.89
64668;BME280;51077;42.716;23.344;2022-10-04T06:16:53;95734.72;;;18.40;46.88
64668;BME280;51077;42.716;23.344;2022-10-04T06:24:47;95742.56;;;19.18;45.07
64668;BME280;51077;42.716;23.344;2022-10-04T06:30:12;95740.63;;;19.74;44.15
64668;BME280;51077;42.716;23.344;2022-10-04T06:41:06;95747.16;;;20.82;41.92
64668;BME280;51077;42.716;23.344;2022-10-04T06:44:09;95758.06;;;21.13;41.13
64668;BME280;51077;42.716;23.344;2022-10-04T07:01:00;95762.72;;;22.39;38.63
64668;BME280;51077;42.716;23.344;2022-10-04T07:03:48;95761.56;;;22.42;38.29
64668;BME280;51077;42.716;23.344;2022-10-04T07:06:41;95758.38;;;22.55;37.99
64668;BME280;51077;42.716;23.344;2022-10-04T07:09:24;95761.19;;;22.55;37.79
64668;BME280;51077;42.716;23.344;2022-10-04T07:12:04;95770.50;;;22.68;37.32
64668;BME280;51077;42.716;23.344;2022-10-04T07:14:38;95765.91;;;22.63;37.54
64668;BME280;51077;42.716;23.344;2022-10-04T07:17:23;95767.34;;;22.54;37.61
64668;BME280;51077;42.716;23.344;2022-10-04T07:19:51;95774.44;;;22.38;37.50
64668;BME280;51077;42.716;23.344;2022-10-04T07:22:40;95772.13;;;22.17;37.35
64668;BME280;51077;42.716;23.344;2022-10-04T07:25:19;95775.16;;;21.94;37.41
64668;BME280;51077;42.716;23.344;2022-10-04T07:30:59;95780.50;;;21.47;38.09
64668;BME280;51077;42.716;23.344;2022-10-04T07:33:29;95783.78;;;21.28;38.48
64668;BME280;51077;42.716;23.344;2022-10-04T07:36:11;95779.66;;;21.12;38.49
64668;BME280;51077;42.716;23.344;2022-10-04T07:38:48;95786.25;;;20.99;38.80
64668;BME280;51077;42.716;23.344;2022-10-04T07:41:31;95785.81;;;20.86;38.74
64668;BME280;51077;42.716;23.344;2022-10-04T07:44:20;95781.06;;;20.71;38.75
64668;BME280;51077;42.716;23.344;2022-10-04T07:47:02;95791.00;;;20.56;38.94
64668;BME280;51077;42.716;23.344;2022-10-04T07:49:37;95787.72;;;20.43;39.16
64668;BME280;51077;42.716;23.344;2022-10-04T08:00:16;95794.28;;;19.82;39.61
64668;BME280;51077;42.716;23.344;2022-10-04T08:05:38;95800.81;;;19.62;39.96
64668;BME280;51077;42.716;23.344;2022-10-04T08:27:29;95790.78;;;19.51;39.04
64668;BME280;51077;42.716;23.344;2022-10-04T08:30:10;95782.63;;;19.61;39.01
64668;BME280;51077;42.716;23.344;2022-10-04T08:33:05;95788.34;;;19.70;38.27
64668;BME280;51077;42.716;23.344;2022-10-04T08:35:49;95785.56;;;19.78;38.14
64668;BME280;51077;42.716;23.344;2022-10-04T08:38:43;95788.50;;;19.88;38.01
64668;BME280;51077;42.716;23.344;2022-10-04T09:06:25;95790.09;;;21.12;35.70
64668;BME280;51077;42.716;23.344;2022-10-04T09:19:26;95790.19;;;22.87;32.98
64668;BME280;51077;42.716;23.344;2022-10-04T09:22:15;95788.91;;;23.25;32.26
64668;BME280;51077;42.716;23.344;2022-10-04T09:30:20;95789.41;;;24.67;30.39
64668;BME280;51077;42.716;23.344;2022-10-04T09:52:49;95782.38;;;24.17;30.95
64668;BME280;51077;42.716;23.344;2022-10-04T10:01:13;95788.53;;;25.15;29.92
64668;BME280;51077;42.716;23.344;2022-10-04T10:13:05;95797.28;;;26.26;28.44
64668;BME280;51077;42.716;23.344;2022-10-04T10:21:36;95798.16;;;27.30;27.26
64668;BME280;51077;42.716;23.344;2022-10-04T10:32:38;95794.88;;;28.83;25.68
64668;BME280;51077;42.716;23.344;2022-10-04T10:41:17;95795.91;;;28.75;25.86
64668;BME280;51077;42.716;23.344;2022-10-04T10:47:03;95802.25;;;28.37;26.02
64668;BME280;51077;42.716;23.344;2022-10-04T10:49:57;95805.28;;;28.03;26.43
64668;BME280;51077;42.716;23.344;2022-10-04T11:06:46;95792.25;;;26.24;28.06
64668;BME280;51077;42.716;23.344;2022-10-04T11:09:30;95798.16;;;26.28;27.91
64668;BME280;51077;42.716;23.344;2022-10-04T11:23:18;95786.81;;;27.89;26.24
64668;BME280;51077;42.716;23.344;2022-10-04T11:40:35;95790.41;;;28.15;25.55
64668;BME280;51077;42.716;23.344;2022-10-04T11:45:55;95788.56;;;27.82;26.06
64668;BME280;51077;42.716;23.344;2022-10-04T11:48:38;95799.34;;;27.74;26.28
64668;BME280;51077;42.716;23.344;2022-10-04T11:54:03;95793.84;;;27.29;26.67
64668;BME280;51077;42.716;23.344;2022-10-04T12:02:00;95796.31;;;26.54;27.42
64668;BME280;51077;42.716;23.344;2022-10-04T12:08:14;95793.13;;;26.27;27.58
64668;BME280;51077;42.716;23.344;2022-10-04T12:10:58;95799.69;;;26.20;27.32
64668;BME280;51077;42.716;23.344;2022-10-04T12:13:50;95798.28;;;26.30;27.17
64668;BME280;51077;42.716;23.344;2022-10-04T12:16:33;95793.63;;;26.68;26.68
64668;BME280;51077;42.716;23.344;2022-10-04T12:19:31;95793.00;;;27.26;26.27
64668;BME280;51077;42.716;23.344;2022-10-04T12:24:49;95792.38;;;28.49;24.83
64668;BME280;51077;42.716;23.344;2022-10-04T12:33:05;95797.94;;;29.40;23.70
64668;BME280;51077;42.716;23.344;2022-10-04T12:36:04;95795.19;;;29.28;23.74
64668;BME280;51077;42.716;23.344;2022-10-04T12:39:07;95797.56;;;29.06;23.85
64668;BME280;51077;42.716;23.344;2022-10-04T12:53:26;95805.50;;;27.35;25.60
64668;BME280;51077;42.716;23.344;2022-10-04T12:56:13;95803.75;;;27.06;25.85
64668;BME280;51077;42.716;23.344;2022-10-04T13:17:38;95795.69;;;27.36;25.88
64668;BME280;51077;42.716;23.344;2022-10-04T13:23:33;95799.47;;;27.76;25.26
64668;BME280;51077;42.716;23.344;2022-10-04T13:26:29;95808.66;;;27.88;25.21
64668;BME280;51077;42.716;23.344;2022-10-04T13:31:56;95790.50;;;27.79;24.89
64668;BME280;51077;42.716;23.344;2022-10-04T13:43:13;95806.69;;;26.97;26.08
64668;BME280;51077;42.716;23.344;2022-10-04T13:55:08;95812.88;;;26.72;25.73
64668;BME280;51077;42.716;23.344;2022-10-04T14:01:01;95821.78;;;26.56;25.94
64668;BME280;51077;42.716;23.344;2022-10-04T14:17:31;95836.00;;;25.01;27.68
64668;BME280;51077;42.716;23.344;2022-10-04T14:23:43;95836.38;;;24.66;28.23
64668;BME280;51077;42.716;23.344;2022-10-04T14:27:30;95838.34;;;24.44;28.35
64668;BME280;51077;42.716;23.344;2022-10-04T14:54:55;95869.16;;;22.86;30.45
64668;BME280;51077;42.716;23.344;2022-10-04T15:00:18;95867.16;;;22.51;31.09
64668;BME280;51077;42.716;23.344;2022-10-04T15:08:17;95882.59;;;22.00;31.61
64668;BME280;51077;42.716;23.344;2022-10-04T15:13:32;95883.47;;;21.68;32.10
64668;BME280;51077;42.716;23.344;2022-10-04T15:16:21;95889.34;;;21.55;32.41
64668;BME280;51077;42.716;23.344;2022-10-04T15:19:06;95899.72;;;21.37;32.52
64668;BME280;51077;42.716;23.344;2022-10-04T15:24:20;95905.25;;;21.12;33.15
64668;BME280;51077;42.716;23.344;2022-10-04T15:43:40;95916.94;;;20.30;34.34
64668;BME280;51077;42.716;23.344;2022-10-04T15:55:23;95932.78;;;19.89;35.11
64668;BME280;51077;42.716;23.344;2022-10-04T16:00:58;95939.66;;;19.65;35.71
64668;BME280;51077;42.716;23.344;2022-10-04T16:03:42;95931.66;;;19.54;35.94
64668;BME280;51077;42.716;23.344;2022-10-04T16:08:53;95935.91;;;19.32;36.30
64668;BME280;51077;42.716;23.344;2022-10-04T16:16:52;95959.78;;;19.04;36.94
64668;BME280;51077;42.716;23.344;2022-10-04T16:22:14;95961.38;;;18.84;37.26
64668;BME280;51077;42.716;23.344;2022-10-04T16:24:57;95965.41;;;18.76;37.49
64668;BME280;51077;42.716;23.344;2022-10-04T16:30:04;95974.75;;;18.57;37.85
64668;BME280;51077;42.716;23.344;2022-10-04T16:32:45;95976.63;;;18.55;44.24
64668;BME280;51077;42.716;23.344;2022-10-04T16:35:33;95982.69;;;18.53;46.03
64668;BME280;51077;42.716;23.344;2022-10-04T16:48:38;95997.38;;;18.25;44.57
64668;BME280;51077;42.716;23.344;2022-10-04T16:54:25;96003.22;;;18.14;44.03
64668;BME280;51077;42.716;23.344;2022-10-04T17:07:36;96025.44;;;17.93;43.24
64668;BME280;51077;42.716;23.344;2022-10-04T17:10:28;96030.06;;;17.91;42.91
64668;BME280;51077;42.716;23.344;2022-10-04T17:13:10;96032.44;;;17.87;42.80
64668;BME280;51077;42.716;23.344;2022-10-04T17:21:00;96037.72;;;17.77;42.59
64668;BME280;51077;42.716;23.344;2022-10-04T17:23:55;96040.81;;;17.73;42.70
64668;BME280;51077;42.716;23.344;2022-10-04T17:39:53;96053.38;;;17.53;42.65
64668;BME280;51077;42.716;23.344;2022-10-04T17:48:06;96060.69;;;17.43;42.46
64668;BME280;51077;42.716;23.344;2022-10-04T17:51:11;96066.56;;;17.40;42.65
64668;BME280;51077;42.716;23.344;2022-10-04T17:54:02;96072.44;;;17.36;42.83
64668;BME280;51077;42.716;23.344;2022-10-04T17:57:10;96077.56;;;17.32;42.89
64668;BME280;51077;42.716;23.344;2022-10-04T17:59:41;96083.47;;;17.28;42.66
64668;BME280;51077;42.716;23.344;2022-10-04T18:05:20;96089.34;;;17.25;42.95
64668;BME280;51077;42.716;23.344;2022-10-04T18:07:53;96090.41;;;17.22;42.81
64668;BME280;51077;42.716;23.344;2022-10-04T18:10:28;96098.31;;;17.18;42.96
64668;BME280;51077;42.716;23.344;2022-10-04T18:15:27;96096.38;;;17.13;43.15
64668;BME280;51077;42.716;23.344;2022-10-04T18:18:14;96094.69;;;17.09;43.21
64668;BME280;51077;42.716;23.344;2022-10-04T18:23:24;96106.84;;;17.06;43.11
64668;BME280;51077;42.716;23.344;2022-10-04T18:26:13;96108.66;;;17.04;43.24
64668;BME280;51077;42.716;23.344;2022-10-04T18:28:46;96112.00;;;17.02;43.29
64668;BME280;51077;42.716;23.344;2022-10-04T18:33:55;96114.09;;;16.96;43.31
64668;BME280;51077;42.716;23.344;2022-10-04T18:36:23;96111.13;;;16.94;43.22
64668;BME280;51077;42.716;23.344;2022-10-04T18:41:42;96100.13;;;16.89;43.52
64668;BME280;51077;42.716;23.344;2022-10-04T18:44:23;96100.69;;;16.87;45.54
64668;BME280;51077;42.716;23.344;2022-10-04T18:46:59;96104.50;;;16.84;45.77
64668;BME280;51077;42.716;23.344;2022-10-04T18:49:42;96111.34;;;16.83;46.17
64668;BME280;51077;42.716;23.344;2022-10-04T19:00:00;96124.19;;;16.67;45.88
64668;BME280;51077;42.716;23.344;2022-10-04T19:08:37;96131.00;;;16.53;45.87
64668;BME280;51077;42.716;23.344;2022-10-04T19:11:11;96129.84;;;16.48;45.88
64668;BME280;51077;42.716;23.344;2022-10-04T19:13:54;96133.66;;;16.45;46.08
64668;BME280;51077;42.716;23.344;2022-10-04T19:16:34;96133.22;;;16.41;45.80
64668;BME280;51077;42.716;23.344;2022-10-04T19:21:48;96139.16;;;16.32;48.18
64668;BME280;51077;42.716;23.344;2022-10-04T19:27:26;96140.25;;;16.29;52.03
64668;BME280;51077;42.716;23.344;2022-10-04T19:35:21;96146.19;;;16.20;53.60
64668;BME280;51077;42.716;23.344;2022-10-04T19:38:02;96154.06;;;16.16;54.02
64668;BME280;51077;42.716;23.344;2022-10-04T19:45:49;96160.00;;;16.06;54.86
64668;BME280;51077;42.716;23.344;2022-10-04T19:48:19;96149.97;;;16.03;55.27
64668;BME280;51077;42.716;23.344;2022-10-04T19:50:52;96146.97;;;16.01;55.37
64668;BME280;51077;42.716;23.344;2022-10-04T19:53:30;96153.56;;;15.98;55.37
64668;BME280;51077;42.716;23.344;2022-10-04T19:56:00;96156.09;;;15.96;55.55
64668;BME280;51077;42.716;23.344;2022-10-04T19:58:41;96156.63;;;15.95;55.73
64668;BME280;51077;42.716;23.344;2022-10-04T20:01:17;96152.13;;;15.92;56.17
64668;BME280;51077;42.716;23.344;2022-10-04T20:03:45;96153.97;;;15.89;56.27
64668;BME280;51077;42.716;23.344;2022-10-04T20:06:32;96157.22;;;15.88;56.63
64668;BME280;51077;42.716;23.344;2022-10-04T20:09:21;96156.28;;;15.85;56.63
64668;BME280;51077;42.716;23.344;2022-10-04T20:11:49;96166.38;;;15.82;57.16
64668;BME280;51077;42.716;23.344;2022-10-04T20:35:00;96186.66;;;15.72;58.00
64668;BME280;51077;42.716;23.344;2022-10-04T20:45:48;96195.56;;;15.65;58.51
64668;BME280;51077;42.716;23.344;2022-10-04T20:48:35;96198.81;;;15.63;58.62
64668;BME280;51077;42.716;23.344;2022-10-04T20:51:08;96197.09;;;15.60;58.76
64668;BME280;51077;42.716;23.344;2022-10-04T20:53:40;96194.09;;;15.58;58.55
64668;BME280;51077;42.716;23.344;2022-10-04T20:58:38;96198.41;;;15.53;58.74
64668;BME280;51077;42.716;23.344;2022-10-04T21:01:29;96205.97;;;15.53;58.78
64668;BME280;51077;42.716;23.344;2022-10-04T21:04:20;96207.78;;;15.50;58.83
64668;BME280;51077;42.716;23.344;2022-10-04T21:06:58;96215.84;;;15.48;59.21
64668;BME280;51077;42.716;23.344;2022-10-04T21:09:26;96217.66;;;15.46;59.11
64668;BME280;51077;42.716;23.344;2022-10-04T21:11:53;96212.63;;;15.44;59.06
64668;BME280;51077;42.716;23.344;2022-10-04T21:14:23;96218.16;;;15.44;59.57
64668;BME280;51077;42.716;23.344;2022-10-04T21:16:50;96216.44;;;15.41;59.99
64668;BME280;51077;42.716;23.344;2022-10-04T21:27:31;96215.53;;;15.33;59.87
64668;BME280;51077;42.716;23.344;2022-10-04T21:29:58;96207.00;;;15.31;60.08
64668;BME280;51077;42.716;23.344;2022-10-04T21:32:24;96213.56;;;15.28;60.01
64668;BME280;51077;42.716;23.344;2022-10-04T21:34:50;96220.16;;;15.25;60.13
64668;BME280;51077;42.716;23.344;2022-10-04T21:37:16;96213.13;;;15.24;59.89
64668;BME280;51077;42.716;23.344;2022-10-04T21:39:42;96209.38;;;15.21;60.12
64668;BME280;51077;42.716;23.344;2022-10-04T21:42:08;96208.38;;;15.19;60.31
64668;BME280;51077;42.716;23.344;2022-10-04T21:44:33;96206.16;;;15.17;60.21
64668;BME280;51077;42.716;23.344;2022-10-04T21:46:59;96209.44;;;15.16;60.31
64668;BME280;51077;42.716;23.344;2022-10-04T21:49:24;96206.44;;;15.14;60.36
64668;BME280;51077;42.716;23.344;2022-10-04T21:51:50;96208.97;;;15.12;60.30
64668;BME280;51077;42.716;23.344;2022-10-04T21:54:15;96213.00;;;15.11;60.42
64668;BME280;51077;42.716;23.344;2022-10-04T21:56:41;96214.06;;;15.07;60.42
64668;BME280;51077;42.716;23.344;2022-10-04T21:59:06;96209.81;;;15.06;60.74
64668;BME280;51077;42.716;23.344;2022-10-04T22:01:32;96215.09;;;15.04;60.72
64668;BME280;51077;42.716;23.344;2022-10-04T22:03:57;96227.41;;;15.03;60.77
64668;BME280;51077;42.716;23.344;2022-10-04T22:06:23;96217.63;;;15.02;61.05
64668;BME280;51077;42.716;23.344;2022-10-04T22:08:48;96223.66;;;15.01;60.88
64668;BME280;51077;42.716;23.344;2022-10-04T22:11:13;96228.97;;;14.99;61.00
64668;BME280;51077;42.716;23.344;2022-10-04T22:13:39;96221.19;;;14.97;60.83
64668;BME280;51077;42.716;23.344;2022-10-04T22:16:05;96230.75;;;14.96;61.03
64668;BME280;51077;42.716;23.344;2022-10-04T22:18:31;96227.00;;;14.94;60.98
64668;BME280;51077;42.716;23.344;2022-10-04T22:20:57;96225.50;;;14.93;61.16
64668;BME280;51077;42.716;23.344;2022-10-04T22:23:24;96235.59;;;14.90;61.35
64668;BME280;51077;42.716;23.344;2022-10-04T22:25:51;96231.84;;;14.88;61.20
64668;BME280;51077;42.716;23.344;2022-10-04T22:28:21;96231.59;;;14.86;61.21
64668;BME280;51077;42.716;23.344;2022-10-04T22:30:49;96227.84;;;14.83;61.32
64668;BME280;51077;42.716;23.344;2022-10-04T22:33:34;96238.69;;;14.81;61.36
64668;BME280;51077;42.716;23.344;2022-10-04T22:36:36;96238.44;;;14.79;61.33
64668;BME280;51077;42.716;23.344;2022-10-04T22:44:09;96254.09;;;14.71;61.73
64668;BME280;51077;42.716;23.344;2022-10-04T22:46:40;96248.34;;;14.69;61.72
64668;BME280;51077;42.716;23.344;2022-10-04T22:49:12;96255.13;;;14.68;61.85
64668;BME280;51077;42.716;23.344;2022-10-04T22:51:39;96250.63;;;14.65;61.79
64668;BME280;51077;42.716;23.344;2022-10-04T22:54:14;96254.66;;;14.64;61.82
64668;BME280;51077;42.716;23.344;2022-10-04T22:56:39;96257.69;;;14.60;62.15
64668;BME280;51077;42.716;23.344;2022-10-04T22:59:12;96251.19;;;14.57;61.85
64668;BME280;51077;42.716;23.344;2022-10-04T23:01:38;96248.19;;;14.55;61.94
64668;BME280;51077;42.716;23.344;2022-10-04T23:04:12;96252.72;;;14.53;61.93
64668;BME280;51077;42.716;23.344;2022-10-04T23:06:39;96256.00;;;14.51;62.06
64668;BME280;51077;42.716;23.344;2022-10-04T23:09:05;96249.00;;;14.50;62.14
64668;BME280;51077;42.716;23.344;2022-10-04T23:11:30;96252.25;;;14.49;62.32
64668;BME280;51077;42.716;23.344;2022-10-04T23:13:57;96246.47;;;14.47;62.39
64668;BME280;51077;42.716;23.344;2022-10-04T23:16:23;96245.72;;;14.46;62.39
64668;BME280;51077;42.716;23.344;2022-10-04T23:18:49;96253.03;;;14.44;62.40